Time;durP1;ratioP1;P1;durP2;ratioP2;P2;SDS_P1;SDS_P2;PMS_P1;PMS_P2;Temp;Humidity;BMP_temperature;BMP_pressure;BME280_temperature;BME280_humidity;BME280_pressure;Samples;Min_cycle;Max_cycle;Signal;HPM_P1;HPM_P2
2023/04/14 00:00:55;;;;;;;0.63;0.63;;;4.30;99.90;;;;;;4915485;29;20296;-66
2023/04/14 00:07:25;;;;;;;0.70;0.70;;;4.20;99.90;;;;;;4859343;29;20219;-67
2023/04/14 00:09:51;;;;;;;0.70;0.70;;;4.10;99.90;;;;;;4879811;29;20250;-67
2023/04/14 00:16:19;;;;;;;0.60;0.60;;;4.20;99.90;;;;;;4899380;28;20221;-68
2023/04/14 00:18:45;;;;;;;0.70;0.70;;;4.10;99.90;;;;;;4878112;29;20258;-68
2023/04/14 00:21:14;;;;;;;0.60;0.60;;;4.10;99.90;;;;;;4878919;29;20842;-68
2023/04/14 00:23:59;;;;;;;0.50;0.50;;;4.10;99.90;;;;;;4878595;29;20212;-66
2023/04/14 00:26:25;;;;;;;0.75;0.75;;;4.00;99.90;;;;;;4877454;29;20219;-67
2023/04/14 00:32:45;;;;;;;0.60;0.60;;;4.10;99.90;;;;;;4835608;29;20215;-68
2023/04/14 00:35:32;;;;;;;0.73;0.73;;;4.00;99.90;;;;;;4851092;29;20259;-67
2023/04/14 00:38:50;;;;;;;0.70;0.70;;;4.00;99.90;;;;;;4895659;29;20222;-66
2023/04/14 00:41:52;;;;;;;1.42;1.33;;;4.00;99.90;;;;;;4901560;29;20214;-66
2023/04/14 00:44:39;;;;;;;0.52;0.52;;;4.00;99.90;;;;;;4916953;29;20206;-67
2023/04/14 00:47:22;;;;;;;0.68;0.68;;;4.00;99.90;;;;;;4916584;29;20218;-67
2023/04/14 01:03:52;;;;;;;0.70;0.70;;;3.90;99.90;;;;;;5060394;22;20277;-76
2023/04/14 01:06:17;;;;;;;0.70;0.70;;;3.90;99.90;;;;;;5054078;28;20283;-76
2023/04/14 01:08:43;;;;;;;0.60;0.60;;;3.90;99.90;;;;;;5053465;28;20271;-77
2023/04/14 01:11:35;;;;;;;1.08;1.02;;;3.80;99.90;;;;;;5072059;28;20585;-76
2023/04/14 01:14:19;;;;;;;0.60;0.60;;;3.80;99.90;;;;;;5071835;28;20203;-77
2023/04/14 01:16:48;;;;;;;0.50;0.50;;;3.80;99.90;;;;;;5053837;28;20225;-76
2023/04/14 01:19:26;;;;;;;0.70;0.70;;;3.90;99.90;;;;;;5071923;28;20189;-77
2023/04/14 01:21:59;;;;;;;0.80;0.80;;;3.90;99.90;;;;;;5071741;28;20193;-77
2023/04/14 01:24:33;;;;;;;0.70;0.70;;;3.90;99.90;;;;;;5070346;28;20565;-77
2023/04/14 01:27:26;;;;;;;0.70;0.70;;;3.80;99.90;;;;;;5071858;28;20212;-76
2023/04/14 01:30:14;;;;;;;0.80;0.80;;;3.80;99.90;;;;;;5053066;28;20201;-76
2023/04/14 01:32:44;;;;;;;0.70;0.70;;;3.80;99.90;;;;;;5051324;28;20263;-76
2023/04/14 01:35:19;;;;;;;0.82;0.82;;;3.80;99.90;;;;;;5054952;28;20552;-76
2023/04/14 01:37:48;;;;;;;0.70;0.70;;;3.80;99.90;;;;;;5055398;28;20547;-76
2023/04/14 01:40:16;;;;;;;0.60;0.60;;;3.80;99.90;;;;;;5055253;28;20211;-76
2023/04/14 01:42:48;;;;;;;0.60;0.60;;;3.80;99.90;;;;;;5053646;28;20189;-76
2023/04/14 01:45:24;;;;;;;0.50;0.50;;;3.80;99.90;;;;;;5055296;28;20649;-76
2023/04/14 01:47:51;;;;;;;0.60;0.60;;;3.80;99.90;;;;;;5053966;28;20571;-76
2023/04/14 01:50:18;;;;;;;0.70;0.70;;;3.80;99.90;;;;;;5055165;28;20198;-76
2023/04/14 01:52:46;;;;;;;0.60;0.60;;;3.80;99.90;;;;;;5055190;28;20198;-76
2023/04/14 01:55:15;;;;;;;0.60;0.60;;;3.70;99.90;;;;;;5054958;28;20683;-76
2023/04/14 01:57:43;;;;;;;0.77;0.77;;;3.80;99.90;;;;;;5068477;28;20682;-76
2023/04/14 02:00:10;;;;;;;1.00;1.00;;;3.80;99.90;;;;;;5074992;28;20196;-76
2023/04/14 02:02:38;;;;;;;0.60;0.60;;;3.80;99.90;;;;;;5073845;28;20220;-77
2023/04/14 02:05:07;;;;;;;0.70;0.70;;;3.70;99.90;;;;;;5053139;28;20199;-76
2023/04/14 02:07:34;;;;;;;0.60;0.60;;;3.70;99.90;;;;;;5054541;28;20190;-76
2023/04/14 02:10:00;;;;;;;1.55;1.45;;;3.70;99.90;;;;;;5053492;28;20201;-75
2023/04/14 02:12:27;;;;;;;0.70;0.70;;;3.70;99.90;;;;;;5053236;28;20202;-76
2023/04/14 02:14:54;;;;;;;0.65;0.65;;;3.70;99.90;;;;;;5054624;28;20233;-76
2023/04/14 02:17:20;;;;;;;0.60;0.60;;;3.70;99.90;;;;;;5053257;28;20189;-77
2023/04/14 02:19:48;;;;;;;0.60;0.60;;;3.70;99.90;;;;;;5054446;28;20186;-76
2023/04/14 02:22:14;;;;;;;0.60;0.60;;;3.80;99.90;;;;;;5053302;28;20228;-76
2023/04/14 02:24:40;;;;;;;0.80;0.80;;;3.70;99.90;;;;;;5054138;28;20225;-77
2023/04/14 02:27:13;;;;;;;0.65;0.65;;;3.60;99.90;;;;;;5057282;28;20195;-76
2023/04/14 02:29:42;;;;;;;0.65;0.65;;;3.70;99.90;;;;;;5056180;28;20339;-76
2023/04/14 02:32:16;;;;;;;1.45;1.35;;;3.70;99.90;;;;;;5074490;28;20235;-76
2023/04/14 02:34:51;;;;;;;0.70;0.70;;;3.70;99.90;;;;;;5074080;28;20208;-76
2023/04/14 02:37:35;;;;;;;0.90;0.90;;;3.60;99.90;;;;;;5074331;28;20189;-76
2023/04/14 02:40:17;;;;;;;0.70;0.70;;;3.60;99.90;;;;;;5074404;28;20216;-76
2023/04/14 02:42:47;;;;;;;0.70;0.70;;;3.60;99.90;;;;;;5055963;28;20193;-77
2023/04/14 02:45:18;;;;;;;0.68;0.68;;;3.60;99.90;;;;;;5073720;28;20200;-76
2023/04/14 02:47:48;;;;;;;0.60;0.60;;;3.60;99.90;;;;;;5055950;28;20203;-76
2023/04/14 02:50:15;;;;;;;0.70;0.70;;;3.60;99.90;;;;;;5073956;28;20205;-76
2023/04/14 02:52:43;;;;;;;0.60;0.60;;;3.60;99.90;;;;;;5055587;28;20699;-77
2023/04/14 02:55:10;;;;;;;0.55;0.55;;;3.60;99.90;;;;;;5073969;28;20201;-76
2023/04/14 02:57:37;;;;;;;0.60;0.60;;;3.60;99.90;;;;;;5073621;28;20200;-76
2023/04/14 03:00:05;;;;;;;0.60;0.60;;;3.60;99.90;;;;;;5073624;28;20670;-76
2023/04/14 03:02:31;;;;;;;0.80;0.80;;;3.60;99.90;;;;;;5063373;28;20438;-76
2023/04/14 03:04:58;;;;;;;0.70;0.70;;;3.60;99.90;;;;;;5066189;28;20188;-76
2023/04/14 03:07:26;;;;;;;0.60;0.60;;;3.60;99.90;;;;;;5073403;28;20197;-77
2023/04/14 03:09:52;;;;;;;0.60;0.60;;;3.60;99.90;;;;;;5055668;28;20201;-76
2023/04/14 03:12:19;;;;;;;0.98;0.98;;;3.60;99.90;;;;;;5073636;28;20595;-76
2023/04/14 03:14:45;;;;;;;0.70;0.70;;;3.60;99.90;;;;;;5073549;28;20228;-76
2023/04/14 03:17:13;;;;;;;0.60;0.60;;;3.60;99.90;;;;;;5055488;28;20201;-77
2023/04/14 03:19:41;;;;;;;1.60;1.50;;;3.60;99.90;;;;;;5073126;28;20227;-76
2023/04/14 03:22:11;;;;;;;0.70;0.70;;;3.60;99.90;;;;;;5073375;28;20189;-76
2023/04/14 03:24:39;;;;;;;0.88;0.88;;;3.60;99.90;;;;;;5072854;28;20599;-77
2023/04/14 03:27:09;;;;;;;0.70;0.70;;;3.60;99.90;;;;;;5073235;28;20683;-76
2023/04/14 03:29:47;;;;;;;1.45;1.35;;;3.60;99.90;;;;;;5055042;28;20292;-76
2023/04/14 03:32:15;;;;;;;0.68;0.68;;;3.60;99.90;;;;;;5073202;28;20693;-77
2023/04/14 03:34:42;;;;;;;1.15;1.15;;;3.60;99.90;;;;;;5054864;28;20671;-77
2023/04/14 03:37:08;;;;;;;0.80;0.80;;;3.60;99.90;;;;;;5071783;28;20231;-80
2023/04/14 03:39:38;;;;;;;0.80;0.80;;;3.60;99.90;;;;;;5072760;28;20235;-77
2023/04/14 03:42:10;;;;;;;0.60;0.60;;;3.60;99.90;;;;;;5054947;28;20200;-77
2023/04/14 03:44:39;;;;;;;1.05;1.05;;;3.60;99.90;;;;;;5072811;28;20196;-76
2023/04/14 03:47:07;;;;;;;0.80;0.80;;;3.60;99.90;;;;;;5072932;28;20239;-76
2023/04/14 03:49:37;;;;;;;0.60;0.60;;;3.60;99.90;;;;;;5072445;28;20232;-76
2023/04/14 03:52:05;;;;;;;1.77;1.15;;;3.60;99.90;;;;;;5072873;28;20666;-76
2023/04/14 03:54:33;;;;;;;0.70;0.70;;;3.60;99.90;;;;;;5072545;28;20208;-77
2023/04/14 03:57:03;;;;;;;0.60;0.60;;;3.60;99.90;;;;;;5071901;28;20193;-77
2023/04/14 03:59:30;;;;;;;0.70;0.70;;;3.60;99.90;;;;;;5072528;28;20185;-77
2023/04/14 04:01:56;;;;;;;0.70;0.70;;;3.60;99.90;;;;;;5054357;28;20201;-77
2023/04/14 04:04:25;;;;;;;0.80;0.80;;;3.60;99.90;;;;;;5072272;28;20205;-78
2023/04/14 04:06:52;;;;;;;0.65;0.65;;;3.60;99.90;;;;;;5054647;28;20208;-77
2023/04/14 04:09:21;;;;;;;0.90;0.90;;;3.60;99.90;;;;;;5072575;28;20190;-77
2023/04/14 04:11:48;;;;;;;0.80;0.80;;;3.60;99.90;;;;;;5054666;28;20196;-76
2023/04/14 04:14:17;;;;;;;0.60;0.60;;;3.60;99.90;;;;;;5072586;28;20204;-77
2023/04/14 04:16:50;;;;;;;0.95;0.95;;;3.60;99.90;;;;;;5054933;28;20221;-77
2023/04/14 04:19:20;;;;;;;0.60;0.60;;;3.60;99.90;;;;;;5054336;28;20193;-77
2023/04/14 04:21:48;;;;;;;2.05;1.58;;;3.60;99.90;;;;;;5072443;28;20181;-78
2023/04/14 04:24:18;;;;;;;0.80;0.80;;;3.60;99.90;;;;;;5072486;28;20189;-77
2023/04/14 04:26:44;;;;;;;0.65;0.65;;;3.70;99.90;;;;;;5070966;28;20286;-77
2023/04/14 04:29:11;;;;;;;0.60;0.60;;;3.60;99.90;;;;;;5072498;28;20276;-77
2023/04/14 04:31:38;;;;;;;0.70;0.70;;;3.60;99.90;;;;;;5053922;28;20201;-77
2023/04/14 04:34:05;;;;;;;0.70;0.70;;;3.60;99.90;;;;;;5071063;28;20200;-77
2023/04/14 04:36:32;;;;;;;0.63;0.63;;;3.60;99.90;;;;;;5054075;28;20193;-77
2023/04/14 04:38:58;;;;;;;0.65;0.65;;;3.60;99.90;;;;;;5072422;28;20192;-78
2023/04/14 04:41:28;;;;;;;0.70;0.70;;;3.60;99.90;;;;;;5072136;28;20188;-78
2023/04/14 04:43:55;;;;;;;0.70;0.70;;;3.70;99.90;;;;;;5054269;28;20648;-77
2023/04/14 04:46:21;;;;;;;0.80;0.80;;;3.70;99.90;;;;;;5072013;28;20288;-78
2023/04/14 04:48:51;;;;;;;0.60;0.60;;;3.60;99.90;;;;;;5072103;28;20224;-77
2023/04/14 04:51:17;;;;;;;0.70;0.70;;;3.70;99.90;;;;;;5072174;28;20241;-77
2023/04/14 04:53:43;;;;;;;0.60;0.60;;;3.60;99.90;;;;;;5071715;28;20253;-77
2023/04/14 04:56:09;;;;;;;0.60;0.60;;;3.70;99.90;;;;;;5072033;28;20733;-77
2023/04/14 04:58:35;;;;;;;1.05;1.05;;;3.70;99.90;;;;;;5053832;28;20189;-77
2023/04/14 05:01:10;;;;;;;0.60;0.60;;;3.70;99.90;;;;;;5072074;28;20188;-78
2023/04/14 05:03:36;;;;;;;0.65;0.65;;;3.70;99.90;;;;;;5071272;28;20755;-77
2023/04/14 05:06:03;;;;;;;0.60;0.60;;;3.70;99.90;;;;;;5071119;28;20205;-77
2023/04/14 05:08:29;;;;;;;0.50;0.50;;;3.70;99.90;;;;;;5056157;28;20281;-77
2023/04/14 05:10:54;;;;;;;0.65;0.65;;;3.70;99.90;;;;;;5057860;28;20652;-77
2023/04/14 05:13:21;;;;;;;0.60;0.60;;;3.80;99.90;;;;;;5075581;28;20196;-78
2023/04/14 05:15:47;;;;;;;0.60;0.60;;;3.80;99.90;;;;;;5057292;28;20694;-77
2023/04/14 05:18:13;;;;;;;0.60;0.60;;;3.80;99.90;;;;;;5075717;28;20184;-77
2023/04/14 05:20:39;;;;;;;0.90;0.90;;;3.80;99.90;;;;;;5075475;28;20251;-77
2023/04/14 05:23:05;;;;;;;0.60;0.60;;;3.80;99.90;;;;;;5057641;28;20242;-77
2023/04/14 05:25:31;;;;;;;1.25;1.25;;;3.90;99.90;;;;;;5075352;28;20193;-78
2023/04/14 05:27:57;;;;;;;0.60;0.60;;;3.90;99.90;;;;;;5075498;28;20204;-77
2023/04/14 05:30:22;;;;;;;0.60;0.60;;;3.90;99.90;;;;;;5057328;28;20231;-77
2023/04/14 05:32:49;;;;;;;0.70;0.70;;;4.00;99.90;;;;;;5075306;28;20193;-77
2023/04/14 05:35:15;;;;;;;0.60;0.60;;;4.00;99.90;;;;;;5057294;28;20216;-77
2023/04/14 05:37:41;;;;;;;0.60;0.60;;;4.00;99.90;;;;;;5057034;28;20193;-77
2023/04/14 05:40:07;;;;;;;0.60;0.60;;;4.00;99.90;;;;;;5073962;28;20242;-77
2023/04/14 05:42:33;;;;;;;0.70;0.70;;;4.10;99.90;;;;;;5074830;28;20713;-79
2023/04/14 05:44:59;;;;;;;1.00;1.00;;;4.10;99.90;;;;;;5075242;28;20192;-77
2023/04/14 05:47:24;;;;;;;0.70;0.70;;;4.10;99.90;;;;;;5074941;28;20203;-78
2023/04/14 05:49:50;;;;;;;0.85;0.85;;;4.10;99.90;;;;;;5074880;28;20197;-77
2023/04/14 05:52:16;;;;;;;0.80;0.80;;;4.10;99.90;;;;;;5057143;28;20208;-77
2023/04/14 05:54:42;;;;;;;1.13;1.08;;;4.10;99.90;;;;;;5074716;28;20627;-77
2023/04/14 05:57:07;;;;;;;1.08;1.08;;;4.20;99.90;;;;;;5074872;28;20272;-77
2023/04/14 05:59:33;;;;;;;3.22;2.00;;;4.20;99.90;;;;;;5074647;28;20196;-77
2023/04/14 06:02:03;;;;;;;2.22;1.95;;;4.20;99.90;;;;;;5074845;28;20267;-77
2023/04/14 06:04:29;;;;;;;0.88;0.85;;;4.20;99.90;;;;;;5074435;28;20639;-77
2023/04/14 06:06:55;;;;;;;0.75;0.75;;;4.20;99.90;;;;;;5074826;28;20283;-77
2023/04/14 06:09:20;;;;;;;1.10;1.05;;;4.20;99.90;;;;;;5056507;28;20230;-77
2023/04/14 06:11:46;;;;;;;0.65;0.65;;;4.20;99.90;;;;;;5074432;28;20193;-77
2023/04/14 06:14:12;;;;;;;0.70;0.70;;;4.20;99.90;;;;;;5056527;28;20721;-77
2023/04/14 06:16:37;;;;;;;1.05;1.05;;;4.20;99.90;;;;;;5074322;28;20201;-77
2023/04/14 06:19:03;;;;;;;4.55;2.53;;;4.30;99.90;;;;;;5055814;28;20283;-77
2023/04/14 06:21:30;;;;;;;0.70;0.70;;;4.30;99.90;;;;;;5056213;28;20297;-77
2023/04/14 06:23:56;;;;;;;0.80;0.80;;;4.30;99.90;;;;;;5073723;28;20204;-77
2023/04/14 06:26:22;;;;;;;0.80;0.80;;;4.30;99.90;;;;;;5074242;28;20200;-77
2023/04/14 06:28:47;;;;;;;1.95;1.60;;;4.30;99.90;;;;;;5074287;28;20261;-77
2023/04/14 06:31:14;;;;;;;1.00;1.00;;;4.30;99.90;;;;;;5055331;28;20584;-77
2023/04/14 06:33:40;;;;;;;0.70;0.70;;;4.40;99.90;;;;;;5073126;28;20208;-77
2023/04/14 06:36:06;;;;;;;2.58;2.38;;;4.40;99.90;;;;;;5074194;28;20196;-77
2023/04/14 06:38:32;;;;;;;1.00;1.00;;;4.40;99.90;;;;;;5073886;28;20197;-77
2023/04/14 06:40:58;;;;;;;1.00;0.95;;;4.40;99.90;;;;;;5074126;28;20207;-77
2023/04/14 06:43:23;;;;;;;0.60;0.60;;;4.40;99.90;;;;;;5073877;28;20200;-77
2023/04/14 06:45:49;;;;;;;0.57;0.57;;;4.40;99.90;;;;;;5073792;28;20204;-77
2023/04/14 06:48:15;;;;;;;0.70;0.70;;;4.40;99.90;;;;;;5073901;28;20700;-77
2023/04/14 06:50:41;;;;;;;1.40;1.30;;;4.50;99.90;;;;;;5073834;28;20242;-77
2023/04/14 06:53:08;;;;;;;0.90;0.90;;;4.40;99.90;;;;;;5056290;28;20203;-77
2023/04/14 06:55:40;;;;;;;0.70;0.70;;;4.40;99.90;;;;;;5073554;28;20292;-77
2023/04/14 06:58:06;;;;;;;1.67;1.58;;;4.50;99.90;;;;;;5055812;28;20266;-77
2023/04/14 07:00:32;;;;;;;0.80;0.80;;;4.50;99.90;;;;;;5073447;28;20662;-77
2023/04/14 07:02:57;;;;;;;4.95;2.00;;;4.50;99.90;;;;;;5073573;28;20261;-77
2023/04/14 07:05:23;;;;;;;0.70;0.70;;;4.50;99.90;;;;;;5073270;28;20205;-77
2023/04/14 07:07:49;;;;;;;0.70;0.70;;;4.60;99.90;;;;;;5073395;28;20690;-77
2023/04/14 07:10:15;;;;;;;0.98;0.98;;;4.60;99.90;;;;;;5072252;28;20232;-78
2023/04/14 07:12:41;;;;;;;0.70;0.70;;;4.60;99.90;;;;;;5071916;28;20247;-77
2023/04/14 07:15:07;;;;;;;0.70;0.70;;;4.60;99.90;;;;;;5055417;28;20303;-77
2023/04/14 07:17:35;;;;;;;0.70;0.70;;;4.60;99.90;;;;;;5055257;28;20189;-77
2023/04/14 07:20:02;;;;;;;0.80;0.80;;;4.60;99.90;;;;;;5073386;28;20706;-77
2023/04/14 07:22:28;;;;;;;0.80;0.80;;;4.60;99.90;;;;;;5055152;28;20303;-77
2023/04/14 07:24:54;;;;;;;0.88;0.88;;;4.70;99.90;;;;;;5071979;28;20283;-77
2023/04/14 07:27:19;;;;;;;0.80;0.80;;;4.70;99.90;;;;;;5073002;28;20644;-77
2023/04/14 07:29:45;;;;;;;0.90;0.90;;;4.80;99.90;;;;;;5073123;28;20197;-77
2023/04/14 07:32:12;;;;;;;0.60;0.60;;;4.80;99.90;;;;;;5070822;28;20205;-77
2023/04/14 07:34:42;;;;;;;0.90;0.90;;;4.80;99.90;;;;;;5072759;28;20196;-77
2023/04/14 07:37:09;;;;;;;0.90;0.90;;;4.80;99.90;;;;;;5073000;28;20197;-77
2023/04/14 07:39:34;;;;;;;0.77;0.77;;;4.80;99.90;;;;;;5072777;28;20705;-76
2023/04/14 07:42:00;;;;;;;0.80;0.80;;;4.80;99.90;;;;;;5072824;28;20224;-77
2023/04/14 07:44:26;;;;;;;1.75;1.50;;;4.80;99.90;;;;;;5072725;28;20197;-77
2023/04/14 07:46:52;;;;;;;0.70;0.70;;;4.80;99.90;;;;;;5072818;28;20250;-77
2023/04/14 07:49:18;;;;;;;0.85;0.85;;;4.80;99.90;;;;;;5054905;28;20280;-77
2023/04/14 07:51:43;;;;;;;1.20;1.10;;;4.80;99.90;;;;;;5054747;28;20254;-77
2023/04/14 07:54:10;;;;;;;1.13;1.02;;;4.80;99.90;;;;;;5072702;28;20689;-77
2023/04/14 07:56:35;;;;;;;0.60;0.60;;;4.90;99.90;;;;;;5072501;28;20567;-77
2023/04/14 07:59:01;;;;;;;0.70;0.70;;;4.90;99.90;;;;;;5072835;28;20196;-77
2023/04/14 08:01:27;;;;;;;0.80;0.80;;;4.90;99.90;;;;;;5072299;28;20255;-77
2023/04/14 08:03:53;;;;;;;1.58;0.95;;;4.90;99.90;;;;;;5053420;28;20311;-77
2023/04/14 08:06:19;;;;;;;0.70;0.70;;;4.90;99.90;;;;;;5071196;28;20287;-77
2023/04/14 08:08:45;;;;;;;0.70;0.70;;;5.00;99.90;;;;;;5072534;28;20192;-77
2023/04/14 08:11:11;;;;;;;0.90;0.90;;;5.00;99.90;;;;;;5071334;28;20200;-77
2023/04/14 08:13:37;;;;;;;0.80;0.80;;;5.10;99.90;;;;;;5072286;28;20558;-77
2023/04/14 08:16:03;;;;;;;0.65;0.65;;;5.10;99.90;;;;;;5054475;28;20208;-77
2023/04/14 08:18:29;;;;;;;0.70;0.70;;;5.10;99.90;;;;;;5072297;28;20192;-76
2023/04/14 08:20:55;;;;;;;0.70;0.70;;;5.10;99.90;;;;;;5071229;28;20567;-77
2023/04/14 08:23:21;;;;;;;0.70;0.70;;;5.20;99.90;;;;;;5054128;28;20227;-77
2023/04/14 08:25:47;;;;;;;0.93;0.93;;;5.20;99.90;;;;;;5054369;28;20652;-77
2023/04/14 08:28:13;;;;;;;0.80;0.80;;;5.20;99.90;;;;;;5071115;28;20564;-77
2023/04/14 08:30:39;;;;;;;0.63;0.63;;;5.20;99.90;;;;;;5046727;28;20212;-77
2023/04/14 08:33:04;;;;;;;0.60;0.60;;;5.20;99.90;;;;;;5052243;28;20208;-77
2023/04/14 08:35:30;;;;;;;1.40;1.30;;;5.20;99.90;;;;;;5052296;28;20212;-77
2023/04/14 08:37:59;;;;;;;0.77;0.77;;;5.30;99.90;;;;;;5063448;28;20202;-77
2023/04/14 08:40:32;;;;;;;0.80;0.80;;;5.30;99.90;;;;;;5054068;28;20560;-77
2023/04/14 08:42:58;;;;;;;0.60;0.60;;;5.30;99.90;;;;;;5074100;28;20663;-77
2023/04/14 08:45:24;;;;;;;1.23;1.13;;;5.20;99.90;;;;;;5076164;28;20220;-78
2023/04/14 08:47:53;;;;;;;0.60;0.60;;;5.20;99.90;;;;;;5058267;28;20196;-77
2023/04/14 08:50:24;;;;;;;0.65;0.65;;;5.30;99.90;;;;;;5058245;28;20204;-77
2023/04/14 08:52:58;;;;;;;0.75;0.75;;;5.30;99.90;;;;;;5074872;28;20600;-77
2023/04/14 08:55:25;;;;;;;1.10;1.08;;;5.30;99.90;;;;;;5075859;28;20257;-77
2023/04/14 08:57:51;;;;;;;0.70;0.70;;;5.30;99.90;;;;;;5076055;28;20189;-77
2023/04/14 09:00:18;;;;;;;0.70;0.70;;;5.30;99.90;;;;;;5073101;28;20208;-77
2023/04/14 09:02:44;;;;;;;0.70;0.70;;;5.30;99.90;;;;;;5070811;28;20251;-78
2023/04/14 09:05:11;;;;;;;0.70;0.70;;;5.20;99.90;;;;;;5060184;28;20695;-78
2023/04/14 09:07:37;;;;;;;0.65;0.65;;;5.20;99.90;;;;;;5055659;28;20190;-78
2023/04/14 09:10:04;;;;;;;0.60;0.60;;;5.30;99.90;;;;;;5055994;28;20248;-77
2023/04/14 09:12:31;;;;;;;0.70;0.70;;;5.30;99.90;;;;;;5037609;28;20197;-77
2023/04/14 09:14:58;;;;;;;0.70;0.70;;;5.30;99.90;;;;;;5056047;28;20228;-78
2023/04/14 09:17:29;;;;;;;0.60;0.60;;;5.40;99.90;;;;;;5054291;28;20691;-77
2023/04/14 09:19:56;;;;;;;0.68;0.68;;;5.40;99.90;;;;;;5037731;28;20243;-77
2023/04/14 09:22:21;;;;;;;0.60;0.60;;;5.30;99.90;;;;;;5037593;28;20247;-78
2023/04/14 09:24:47;;;;;;;0.57;0.57;;;5.30;99.90;;;;;;5054251;28;20684;-77
2023/04/14 09:27:14;;;;;;;0.60;0.60;;;5.30;99.90;;;;;;5064119;28;20205;-77
2023/04/14 09:29:40;;;;;;;0.70;0.70;;;5.20;99.90;;;;;;5075278;28;20220;-77
2023/04/14 09:32:08;;;;;;;0.60;0.60;;;5.20;99.90;;;;;;5075433;28;20605;-77
2023/04/14 09:34:34;;;;;;;0.60;0.60;;;5.20;99.90;;;;;;5056905;28;20196;-77
2023/04/14 09:37:08;;;;;;;0.70;0.70;;;5.10;99.90;;;;;;5075410;28;20200;-77
2023/04/14 09:39:35;;;;;;;0.70;0.70;;;5.10;99.90;;;;;;5057087;28;20743;-77
2023/04/14 09:42:02;;;;;;;0.70;0.70;;;5.10;99.90;;;;;;5057365;28;20192;-77
2023/04/14 09:44:29;;;;;;;0.52;0.52;;;5.20;99.90;;;;;;5075093;28;20228;-77
2023/04/14 09:46:59;;;;;;;1.33;1.23;;;5.10;99.90;;;;;;5075183;28;20287;-77
2023/04/14 09:49:26;;;;;;;0.60;0.60;;;5.10;99.90;;;;;;5056993;28;20219;-78
2023/04/14 09:51:55;;;;;;;0.60;0.60;;;5.20;99.90;;;;;;5075014;28;20201;-77
2023/04/14 09:54:24;;;;;;;0.60;0.60;;;5.10;99.90;;;;;;5073670;28;20196;-77
2023/04/14 09:56:53;;;;;;;0.60;0.60;;;5.20;99.90;;;;;;5056706;28;20713;-77
2023/04/14 09:59:32;;;;;;;0.60;0.60;;;5.20;99.90;;;;;;5056780;28;20227;-78
2023/04/14 10:02:06;;;;;;;0.70;0.70;;;5.20;99.90;;;;;;5074083;28;20207;-77
2023/04/14 10:04:33;;;;;;;0.63;0.63;;;5.20;99.90;;;;;;5065158;28;20574;-77
2023/04/14 10:06:59;;;;;;;0.60;0.60;;;5.20;99.90;;;;;;5036909;28;20193;-77
2023/04/14 10:09:28;;;;;;;0.60;0.60;;;5.20;99.90;;;;;;5054574;28;20252;-77
2023/04/14 10:12:12;;;;;;;0.65;0.65;;;5.20;99.90;;;;;;5036768;28;20567;-77
2023/04/14 10:14:39;;;;;;;0.70;0.70;;;5.20;99.90;;;;;;5054409;28;20254;-77
2023/04/14 10:17:06;;;;;;;1.63;1.45;;;5.10;99.90;;;;;;5054644;28;20186;-77
2023/04/14 10:19:32;;;;;;;0.55;0.55;;;5.10;99.90;;;;;;5054278;28;20312;-77
2023/04/14 10:21:58;;;;;;;0.65;0.65;;;5.10;99.90;;;;;;5036721;28;20572;-77
2023/04/14 10:24:24;;;;;;;0.70;0.70;;;5.10;99.90;;;;;;5071937;28;20275;-77
2023/04/14 10:26:51;;;;;;;0.70;0.70;;;5.10;99.90;;;;;;5074496;28;20193;-77
2023/04/14 10:29:17;;;;;;;0.70;0.70;;;5.20;99.90;;;;;;5074356;28;20602;-78
2023/04/14 10:31:57;;;;;;;0.60;0.60;;;5.10;99.90;;;;;;5056563;28;20231;-77
2023/04/14 10:34:24;;;;;;;0.63;0.63;;;5.10;99.90;;;;;;5074050;28;20214;-77
2023/04/14 10:36:50;;;;;;;0.60;0.60;;;5.10;99.90;;;;;;5056286;28;20199;-77
2023/04/14 10:39:23;;;;;;;0.70;0.70;;;5.10;99.90;;;;;;5074552;28;20188;-76
2023/04/14 10:41:51;;;;;;;12.25;3.00;;;5.10;99.90;;;;;;5074110;28;20188;-77
2023/04/14 10:44:34;;;;;;;0.60;0.60;;;5.10;99.90;;;;;;5056424;28;20598;-77
2023/04/14 10:47:03;;;;;;;0.60;0.60;;;5.10;99.90;;;;;;5056129;28;20196;-77
2023/04/14 10:49:34;;;;;;;0.60;0.60;;;5.10;99.90;;;;;;5073728;28;20647;-77
2023/04/14 10:52:02;;;;;;;0.65;0.65;;;5.10;99.90;;;;;;5056067;28;20572;-76
2023/04/14 10:54:47;;;;;;;0.70;0.70;;;5.20;99.90;;;;;;5055514;28;20734;-77
2023/04/14 10:57:16;;;;;;;0.60;0.60;;;5.20;99.90;;;;;;5073822;28;20231;-77
2023/04/14 10:59:42;;;;;;;0.60;0.60;;;5.20;99.90;;;;;;5073587;28;20189;-78
2023/04/14 11:02:28;;;;;;;1.75;1.23;;;5.20;99.90;;;;;;5073683;28;20196;-77
2023/04/14 11:05:03;;;;;;;0.60;0.60;;;5.20;99.90;;;;;;5041245;28;20222;-77
2023/04/14 11:07:30;;;;;;;0.50;0.50;;;5.20;99.90;;;;;;5032202;28;20723;-77
2023/04/14 11:10:19;;;;;;;0.60;0.60;;;5.20;99.90;;;;;;5033741;28;20190;-77
2023/04/14 11:12:47;;;;;;;0.60;0.60;;;5.20;99.90;;;;;;5028140;28;20210;-77
2023/04/14 11:15:14;;;;;;;0.60;0.60;;;5.20;99.90;;;;;;5033574;28;20669;-77
2023/04/14 11:17:41;;;;;;;0.68;0.68;;;5.10;99.90;;;;;;5032086;28;20225;-77
2023/04/14 11:20:17;;;;;;;1.75;1.30;;;5.20;99.90;;;;;;5046474;28;20227;-77
2023/04/14 11:22:44;;;;;;;0.70;0.70;;;5.30;99.90;;;;;;5053153;28;20185;-77
2023/04/14 11:25:20;;;;;;;0.73;0.73;;;5.20;99.90;;;;;;5053414;28;20185;-77
2023/04/14 11:27:50;;;;;;;0.70;0.70;;;5.20;99.90;;;;;;5053187;28;20239;-77
2023/04/14 11:30:20;;;;;;;0.70;0.70;;;5.30;99.90;;;;;;5053265;28;20664;-76
2023/04/14 11:32:51;;;;;;;0.60;0.60;;;5.30;99.90;;;;;;5035276;28;20685;-76
2023/04/14 11:35:18;;;;;;;0.70;0.70;;;5.30;99.90;;;;;;5053070;28;20233;-76
2023/04/14 11:37:45;;;;;;;0.63;0.63;;;5.30;99.90;;;;;;5053156;28;20664;-77
2023/04/14 11:40:12;;;;;;;0.88;0.88;;;5.30;99.90;;;;;;5053112;28;20182;-77
2023/04/14 11:42:45;;;;;;;0.80;0.80;;;5.30;99.90;;;;;;5051486;28;20207;-77
2023/04/14 11:45:15;;;;;;;0.70;0.70;;;5.30;99.90;;;;;;5052860;28;20708;-76
2023/04/14 11:48:04;;;;;;;0.60;0.60;;;5.40;99.90;;;;;;5034614;28;20209;-77
2023/04/14 11:50:31;;;;;;;0.65;0.65;;;5.40;99.90;;;;;;5052380;28;20672;-77
2023/04/14 11:53:01;;;;;;;1.13;1.05;;;5.50;99.90;;;;;;5034882;28;20606;-76
2023/04/14 11:55:28;;;;;;;0.70;0.70;;;5.50;99.90;;;;;;5034578;28;20213;-76
2023/04/14 11:57:58;;;;;;;0.60;0.60;;;5.50;99.90;;;;;;5034755;28;20198;-76
2023/04/14 12:00:24;;;;;;;0.60;0.60;;;5.60;99.90;;;;;;5051211;28;20231;-76
2023/04/14 12:02:50;;;;;;;0.70;0.70;;;5.60;99.90;;;;;;5057962;28;20247;-77
2023/04/14 12:05:21;;;;;;;0.70;0.70;;;5.60;99.90;;;;;;5051142;28;20225;-77
2023/04/14 12:07:56;;;;;;;0.70;0.70;;;5.50;99.90;;;;;;5051209;28;20243;-77
2023/04/14 12:10:22;;;;;;;0.80;0.80;;;5.50;99.90;;;;;;5034313;28;20231;-77
2023/04/14 12:12:48;;;;;;;0.60;0.60;;;5.50;99.90;;;;;;5034544;28;20205;-77
2023/04/14 12:15:14;;;;;;;0.70;0.70;;;5.50;99.90;;;;;;5056177;28;20208;-77
2023/04/14 12:17:40;;;;;;;0.80;0.80;;;5.50;99.90;;;;;;5053674;28;20206;-77
2023/04/14 12:20:14;;;;;;;0.50;0.50;;;5.50;99.90;;;;;;5072480;28;20188;-76
2023/04/14 12:22:40;;;;;;;0.70;0.70;;;5.50;99.90;;;;;;5053980;28;20226;-76
2023/04/14 12:25:12;;;;;;;0.90;0.90;;;5.50;99.90;;;;;;5072360;28;20188;-76
2023/04/14 12:27:38;;;;;;;0.60;0.60;;;5.50;99.90;;;;;;5072103;28;20208;-76
2023/04/14 12:30:04;;;;;;;0.60;0.60;;;5.60;99.90;;;;;;5071121;28;20296;-77
2023/04/14 12:32:40;;;;;;;0.60;0.60;;;5.50;99.90;;;;;;5071972;28;20562;-76
2023/04/14 12:35:06;;;;;;;0.70;0.70;;;5.60;99.90;;;;;;5072195;28;20569;-77
2023/04/14 12:37:33;;;;;;;3.15;1.30;;;5.50;99.90;;;;;;5054038;28;20192;-76
2023/04/14 12:40:02;;;;;;;0.60;0.60;;;5.50;99.90;;;;;;5071090;28;20221;-77
2023/04/14 12:42:43;;;;;;;0.70;0.70;;;5.50;99.90;;;;;;5070631;28;20205;-76
2023/04/14 12:45:09;;;;;;;0.60;0.60;;;5.50;99.90;;;;;;5054069;28;20679;-77
2023/04/14 12:47:35;;;;;;;0.60;0.60;;;5.40;99.90;;;;;;5071747;28;20189;-77
2023/04/14 12:50:21;;;;;;;1.60;1.45;;;5.40;99.90;;;;;;5072238;28;20188;-77
2023/04/14 12:52:47;;;;;;;1.63;1.52;;;5.40;99.90;;;;;;5054003;28;20698;-77
2023/04/14 12:55:24;;;;;;;0.88;0.88;;;5.40;99.90;;;;;;5072048;28;20314;-77
2023/04/14 12:57:53;;;;;;;0.70;0.70;;;5.40;99.90;;;;;;5054066;28;20654;-77
2023/04/14 13:00:20;;;;;;;0.70;0.70;;;5.40;99.90;;;;;;5054019;28;20197;-76
2023/04/14 13:02:47;;;;;;;1.60;1.50;;;5.40;99.90;;;;;;5071868;28;20217;-77
2023/04/14 13:05:12;;;;;;;1.15;1.13;;;5.40;99.90;;;;;;5050521;28;20240;-76
2023/04/14 13:07:38;;;;;;;1.75;1.65;;;5.50;99.90;;;;;;5051651;28;20233;-77
2023/04/14 13:10:04;;;;;;;0.70;0.70;;;5.50;99.90;;;;;;5052057;28;20194;-77
2023/04/14 13:12:30;;;;;;;1.02;1.02;;;5.60;99.90;;;;;;5064147;28;20212;-77
2023/04/14 13:14:56;;;;;;;2.35;1.80;;;5.70;99.90;;;;;;5054061;28;20205;-77
2023/04/14 13:17:23;;;;;;;0.70;0.70;;;5.80;99.90;;;;;;5053862;28;20209;-77
2023/04/14 13:19:49;;;;;;;2.17;1.80;;;5.80;99.90;;;;;;5071674;28;20275;-78
2023/04/14 13:22:15;;;;;;;0.80;0.80;;;5.80;99.90;;;;;;5071994;28;20256;-77
2023/04/14 13:24:41;;;;;;;0.60;0.60;;;5.90;99.90;;;;;;5071787;28;20199;-77
2023/04/14 13:27:06;;;;;;;1.05;1.05;;;5.90;99.90;;;;;;5053831;28;20288;-77
2023/04/14 13:29:33;;;;;;;0.63;0.63;;;5.90;99.90;;;;;;5074206;28;20257;-77
2023/04/14 13:31:59;;;;;;;0.70;0.70;;;6.00;99.90;;;;;;5075707;28;20736;-77